Terminal Aerodrome Forecast
Issued by NWS Sioux Falls, SD

Home | Current Version | Previous Version | Text Only | Print | Product List | Glossary On
Versions: 1 2 3 4 5 6 7 8 9 10 11 12 13 14 15 16 17
000
FTUS43 KFSD 152320
TAFHON
TAF
KHON 152320Z 1600/1624 21008KT P6SM BKN250
     FM160900 26006KT P6SM SCT200
     FM161500 33008KT P6SM BKN150
     FM162200 36009KT P6SM BKN050=

USA.gov is the U.S. government's official web portal to all federal, state and local government web resources and services.